createdAt,value
2023-03-27T00:02:49.743Z,6.50
2023-03-27T00:05:36.464Z,6.50
2023-03-27T00:08:23.107Z,6.40
2023-03-27T00:11:09.546Z,6.40
2023-03-27T00:13:55.937Z,6.40
2023-03-27T00:16:42.737Z,6.40
2023-03-27T00:19:30.680Z,6.30
2023-03-27T00:22:17.360Z,6.20
2023-03-27T00:25:03.989Z,6.30
2023-03-27T00:27:51.078Z,6.30
2023-03-27T00:30:42.588Z,6.30
2023-03-27T00:33:29.230Z,6.30
2023-03-27T00:36:17.242Z,6.40
2023-03-27T00:39:05.085Z,6.40
2023-03-27T00:41:54.424Z,6.50
2023-03-27T00:44:44.735Z,6.40
2023-03-27T00:47:33.904Z,6.40
2023-03-27T00:50:23.277Z,6.30
2023-03-27T00:53:13.852Z,6.30
2023-03-27T00:56:03.007Z,6.30
2023-03-27T01:01:39.871Z,6.00
2023-03-27T01:04:26.964Z,6.10
2023-03-27T01:07:14.383Z,6.10
2023-03-27T01:10:02.545Z,6.10
2023-03-27T01:13:10.089Z,6.10
2023-03-27T01:16:02.742Z,6.10
2023-03-27T01:19:01.795Z,6.00
2023-03-27T01:22:12.009Z,6.00
2023-03-27T01:25:29.125Z,6.10
2023-03-27T01:28:45.921Z,6.00
2023-03-27T01:31:50.409Z,6.00
2023-03-27T01:35:01.153Z,5.90
2023-03-27T01:38:06.991Z,5.80
2023-03-27T01:41:02.297Z,5.80
2023-03-27T01:43:55.500Z,5.90
2023-03-27T01:46:48.944Z,5.90
2023-03-27T01:49:40.617Z,5.80
2023-03-27T01:52:32.507Z,5.90
2023-03-27T01:55:24.105Z,5.90
2023-03-27T01:58:15.876Z,6.10
2023-03-27T02:01:03.987Z,6.00
2023-03-27T02:03:54.871Z,6.10
2023-03-27T02:06:45.805Z,6.00
2023-03-27T02:09:36.608Z,6.00
2023-03-27T02:12:26.213Z,5.90
2023-03-27T02:15:23.659Z,5.80
2023-03-27T02:18:19.134Z,5.90
2023-03-27T02:21:06.616Z,5.80
2023-03-27T02:23:53.118Z,5.80
2023-03-27T02:26:39.407Z,5.80
2023-03-27T02:29:39.633Z,5.70
2023-03-27T02:32:39.591Z,5.60
2023-03-27T02:35:35.521Z,5.70
2023-03-27T02:38:27.600Z,5.50
2023-03-27T02:41:21.426Z,5.50
2023-03-27T02:44:14.001Z,5.40
2023-03-27T02:47:07.378Z,5.20
2023-03-27T02:49:59.349Z,5.20
2023-03-27T02:52:51.103Z,5.10
2023-03-27T02:55:41.281Z,4.80
2023-03-27T02:58:35.345Z,4.70
2023-03-27T03:01:26.746Z,4.60
2023-03-27T03:04:19.068Z,4.60
2023-03-27T03:07:06.834Z,4.50
2023-03-27T03:09:53.820Z,4.50
2023-03-27T03:12:40.789Z,4.40
2023-03-27T03:15:27.483Z,4.20
2023-03-27T03:18:14.046Z,4.40
2023-03-27T03:21:00.920Z,4.60
2023-03-27T03:23:57.630Z,4.60
2023-03-27T03:26:49.975Z,4.50
2023-03-27T03:29:37.426Z,4.50
2023-03-27T03:32:24.186Z,4.50
2023-03-27T03:35:13.720Z,4.60
2023-03-27T03:38:00.931Z,4.40
2023-03-27T03:40:48.707Z,4.30
2023-03-27T03:43:36.644Z,4.30
2023-03-27T03:46:23.212Z,4.20
2023-03-27T03:49:10.099Z,4.10
2023-03-27T03:52:03.667Z,4.10
2023-03-27T03:54:51.863Z,4.20
2023-03-27T03:57:40.760Z,4.10
2023-03-27T04:00:28.298Z,4.10
2023-03-27T04:03:15.737Z,4.00
2023-03-27T04:06:05.354Z,4.00
2023-03-27T04:08:52.998Z,4.10
2023-03-27T04:11:39.614Z,4.20
2023-03-27T04:14:27.469Z,4.20
2023-03-27T04:17:14.675Z,4.30
2023-03-27T04:20:02.186Z,4.40
2023-03-27T04:22:52.564Z,4.40
2023-03-27T04:25:41.120Z,4.40
2023-03-27T04:28:27.992Z,4.30
2023-03-27T04:31:15.868Z,4.20
2023-03-27T04:34:03.039Z,4.20
2023-03-27T04:36:50.199Z,4.30
2023-03-27T04:39:42.736Z,4.20
2023-03-27T04:42:29.626Z,4.30
2023-03-27T04:45:20.227Z,4.30
2023-03-27T04:48:08.497Z,4.30
2023-03-27T04:50:55.281Z,4.30
2023-03-27T04:53:42.990Z,4.20
2023-03-27T04:56:30.774Z,4.30
2023-03-27T04:59:17.432Z,4.20
2023-03-27T05:02:05.543Z,4.20
2023-03-27T05:04:58.120Z,4.20
2023-03-27T05:07:46.584Z,4.20
2023-03-27T05:10:33.039Z,4.20
2023-03-27T05:13:19.366Z,4.20
2023-03-27T05:16:07.067Z,4.10
2023-03-27T05:18:54.691Z,4.20
2023-03-27T05:21:42.558Z,4.10
2023-03-27T05:24:28.995Z,4.00
2023-03-27T05:27:15.825Z,4.10
2023-03-27T05:30:02.703Z,3.90
2023-03-27T05:32:51.801Z,3.90
2023-03-27T05:35:41.926Z,4.00
2023-03-27T05:38:30.161Z,4.20
2023-03-27T05:41:16.879Z,4.40
2023-03-27T05:44:03.661Z,4.40
2023-03-27T05:46:50.099Z,4.40
2023-03-27T05:49:36.484Z,4.40
2023-03-27T05:52:23.191Z,4.50
2023-03-27T05:55:16.723Z,4.70
2023-03-27T05:58:03.397Z,4.80
2023-03-27T06:00:50.387Z,4.90
2023-03-27T06:03:38.400Z,4.90
2023-03-27T06:06:26.395Z,4.90
2023-03-27T06:09:13.211Z,4.70
2023-03-27T06:12:01.411Z,4.80
2023-03-27T06:14:47.897Z,5.00
2023-03-27T06:17:34.838Z,5.30
2023-03-27T06:20:22.724Z,5.70
2023-03-27T06:23:09.462Z,6.00
2023-03-27T06:25:56.485Z,6.30
2023-03-27T06:28:44.603Z,6.50
2023-03-27T06:31:31.313Z,6.70
2023-03-27T06:34:18.718Z,7.00
2023-03-27T06:37:05.380Z,7.30
2023-03-27T06:39:52.086Z,7.40
2023-03-27T06:42:38.677Z,7.90
2023-03-27T06:45:28.988Z,8.10
2023-03-27T06:48:21.464Z,8.20
2023-03-27T06:51:08.697Z,8.20
2023-03-27T06:53:55.393Z,8.00
2023-03-27T06:56:44.231Z,8.10
2023-03-27T06:59:31.250Z,8.40
2023-03-27T07:02:19.064Z,8.70
2023-03-27T07:05:06.294Z,8.70
2023-03-27T07:07:54.022Z,9.00
2023-03-27T07:10:41.302Z,9.10
2023-03-27T07:13:27.996Z,9.30
2023-03-27T07:16:14.458Z,9.40
2023-03-27T07:19:02.580Z,9.50
2023-03-27T07:21:49.654Z,9.60
2023-03-27T07:24:36.073Z,9.60
2023-03-27T07:27:24.925Z,9.80
2023-03-27T07:30:13.193Z,9.90
2023-03-27T07:32:59.870Z,9.90
2023-03-27T07:35:49.096Z,9.80
2023-03-27T07:38:35.836Z,9.90
2023-03-27T07:41:22.820Z,10.00
2023-03-27T07:44:09.459Z,9.90
2023-03-27T07:46:56.186Z,10.20
2023-03-27T07:49:45.112Z,10.30
2023-03-27T07:52:34.679Z,10.60
2023-03-27T07:55:23.047Z,10.60
2023-03-27T07:58:09.885Z,10.80
2023-03-27T08:01:02.876Z,10.70
2023-03-27T08:03:49.472Z,10.80
2023-03-27T08:06:36.434Z,10.90
2023-03-27T08:09:24.191Z,11.20
2023-03-27T08:12:10.495Z,11.30
2023-03-27T08:14:57.064Z,11.10
2023-03-27T08:17:43.715Z,10.80
2023-03-27T08:20:30.496Z,10.60
2023-03-27T08:23:17.443Z,10.50
2023-03-27T08:26:05.884Z,10.30
2023-03-27T08:28:54.127Z,10.20
2023-03-27T08:31:40.910Z,10.30
2023-03-27T08:34:28.024Z,10.40
2023-03-27T08:37:14.287Z,10.70
2023-03-27T08:40:01.838Z,10.60
2023-03-27T08:42:53.235Z,10.50
2023-03-27T08:45:44.122Z,10.40
2023-03-27T08:48:35.527Z,10.40
2023-03-27T08:51:27.297Z,11.00
2023-03-27T08:54:19.019Z,11.30
2023-03-27T08:57:18.678Z,11.00
2023-03-27T09:00:16.512Z,10.80
2023-03-27T09:03:10.684Z,10.70
2023-03-27T09:06:01.507Z,10.90
2023-03-27T09:08:52.599Z,11.00
2023-03-27T09:11:52.013Z,11.50
2023-03-27T09:14:42.117Z,11.60
2023-03-27T09:17:35.920Z,11.60
2023-03-27T09:20:26.663Z,11.30
2023-03-27T09:23:21.058Z,10.90
2023-03-27T09:26:12.625Z,10.90
2023-03-27T09:29:01.837Z,10.60
2023-03-27T09:31:50.999Z,10.30
2023-03-27T09:34:39.161Z,10.10
2023-03-27T09:37:29.744Z,9.80
2023-03-27T09:40:23.430Z,9.70
2023-03-27T09:43:16.234Z,10.10
2023-03-27T09:46:02.949Z,10.40
2023-03-27T09:48:57.684Z,10.80
2023-03-27T09:51:47.599Z,10.80
2023-03-27T09:54:52.471Z,11.00
2023-03-27T09:57:39.555Z,11.60
2023-03-27T10:00:31.174Z,11.80
2023-03-27T10:03:19.808Z,11.60
2023-03-27T10:06:06.898Z,11.40
2023-03-27T10:08:57.310Z,11.40
2023-03-27T10:11:43.778Z,11.60
2023-03-27T10:14:32.811Z,11.20
2023-03-27T10:17:25.380Z,10.70
2023-03-27T10:20:15.965Z,10.70
2023-03-27T10:23:08.009Z,10.60
2023-03-27T10:26:00.588Z,10.60
2023-03-27T10:28:51.536Z,10.10
2023-03-27T10:31:39.774Z,10.20
2023-03-27T10:34:33.509Z,10.30
2023-03-27T10:37:23.032Z,10.00
2023-03-27T10:40:18.749Z,9.40
2023-03-27T10:43:12.880Z,9.30
2023-03-27T10:46:05.784Z,9.20
2023-03-27T10:49:00.950Z,9.50
2023-03-27T10:51:51.475Z,9.40
2023-03-27T10:54:46.906Z,9.30
2023-03-27T10:57:35.611Z,9.30
2023-03-27T11:00:37.985Z,9.20
2023-03-27T11:03:30.186Z,9.20
2023-03-27T11:06:20.088Z,9.20
2023-03-27T11:09:11.609Z,9.50
2023-03-27T11:12:02.332Z,9.80
2023-03-27T11:14:53.193Z,9.70
2023-03-27T11:17:48.776Z,9.40
2023-03-27T11:20:43.537Z,8.90
2023-03-27T11:23:34.856Z,8.60
2023-03-27T11:26:25.175Z,8.60
2023-03-27T11:29:17.145Z,8.60
2023-03-27T11:32:13.566Z,8.70
2023-03-27T11:35:06.993Z,9.00
2023-03-27T11:37:59.628Z,9.50
2023-03-27T11:40:47.638Z,9.70
2023-03-27T11:43:38.390Z,9.70
2023-03-27T11:46:45.991Z,9.40
2023-03-27T11:49:44.518Z,9.10
2023-03-27T11:52:42.337Z,9.00
2023-03-27T11:55:37.937Z,8.90
2023-03-27T11:58:32.220Z,8.90
2023-03-27T12:01:26.983Z,9.10
2023-03-27T12:04:37.601Z,9.10
2023-03-27T12:07:37.116Z,9.10
2023-03-27T12:10:32.776Z,9.20
2023-03-27T12:14:02.211Z,9.20
2023-03-27T12:17:09.446Z,9.20
2023-03-27T12:20:29.288Z,9.10
2023-03-27T12:23:30.518Z,8.90
2023-03-27T12:26:35.790Z,8.90
2023-03-27T12:29:37.158Z,8.80
2023-03-27T12:32:44.982Z,8.80
2023-03-27T12:35:36.842Z,8.90
2023-03-27T12:38:28.848Z,9.00
2023-03-27T12:41:22.879Z,9.20
2023-03-27T12:44:14.237Z,9.50
2023-03-27T12:47:17.589Z,9.60
2023-03-27T12:50:15.221Z,9.60
2023-03-27T12:53:05.572Z,9.00
2023-03-27T12:56:37.053Z,7.90
2023-03-27T12:59:28.418Z,7.20
2023-03-27T13:02:46.077Z,6.80
2023-03-27T13:05:57.521Z,6.90
2023-03-27T13:09:10.295Z,6.60
2023-03-27T13:12:32.061Z,6.40
2023-03-27T13:15:48.752Z,6.40
2023-03-27T13:18:47.804Z,6.60
2023-03-27T13:21:43.772Z,6.70
2023-03-27T13:24:48.224Z,6.70
2023-03-27T13:27:46.816Z,6.60
2023-03-27T13:30:49.899Z,6.60
2023-03-27T13:33:44.346Z,6.50
2023-03-27T13:36:31.010Z,6.50
2023-03-27T13:39:24.831Z,6.50
2023-03-27T13:42:14.245Z,6.60
2023-03-27T13:45:05.317Z,6.70
2023-03-27T13:48:29.045Z,7.10
2023-03-27T13:51:42.457Z,7.40
2023-03-27T13:54:50.037Z,7.40
2023-03-27T13:58:05.122Z,7.50
2023-03-27T14:01:14.407Z,7.50
2023-03-27T14:04:25.604Z,7.50
2023-03-27T14:07:39.031Z,7.50
2023-03-27T14:10:56.437Z,7.40
2023-03-27T14:14:06.639Z,7.20
2023-03-27T14:17:12.174Z,7.30
2023-03-27T14:20:21.811Z,7.30
2023-03-27T14:23:14.352Z,7.20
2023-03-27T14:26:04.591Z,7.20
2023-03-27T14:28:54.365Z,7.00
2023-03-27T14:34:47.180Z,7.00
2023-03-27T14:37:41.929Z,7.00
2023-03-27T14:40:31.702Z,6.70
2023-03-27T14:43:19.648Z,6.60
2023-03-27T14:46:07.586Z,6.50
2023-03-27T14:48:57.889Z,6.40
2023-03-27T14:51:47.490Z,6.40
2023-03-27T14:54:52.243Z,6.50
2023-03-27T14:57:42.191Z,6.20
2023-03-27T15:00:33.430Z,6.20
2023-03-27T15:03:24.618Z,6.30
2023-03-27T15:06:16.950Z,6.40
2023-03-27T15:09:05.378Z,6.50
2023-03-27T15:11:58.891Z,6.50
2023-03-27T15:14:45.947Z,6.60
2023-03-27T15:17:38.618Z,6.70
2023-03-27T15:20:28.040Z,6.70
2023-03-27T15:23:20.274Z,6.80
2023-03-27T15:26:12.643Z,6.80
2023-03-27T15:29:07.920Z,6.90
2023-03-27T15:31:57.187Z,6.90
2023-03-27T15:34:47.411Z,7.00
2023-03-27T15:37:34.968Z,6.80
2023-03-27T15:40:36.535Z,6.60
2023-03-27T15:43:25.690Z,6.30
2023-03-27T15:46:18.890Z,6.10
2023-03-27T15:49:30.941Z,6.30
2023-03-27T15:52:35.199Z,6.60
2023-03-27T15:55:47.715Z,6.60
2023-03-27T15:58:48.280Z,6.40
2023-03-27T16:01:38.352Z,6.30
2023-03-27T16:04:28.243Z,6.10
2023-03-27T16:07:18.476Z,6.00
2023-03-27T16:10:07.609Z,5.90
2023-03-27T16:12:58.296Z,5.80
2023-03-27T16:15:45.035Z,5.70
2023-03-27T16:18:35.338Z,5.70
2023-03-27T16:21:24.082Z,5.70
2023-03-27T16:24:10.860Z,5.70
2023-03-27T16:26:57.395Z,5.70
2023-03-27T16:29:44.246Z,5.70
2023-03-27T16:32:30.822Z,5.60
2023-03-27T16:35:18.917Z,5.70
2023-03-27T16:38:05.327Z,5.70
2023-03-27T16:40:52.336Z,5.80
2023-03-27T16:43:39.010Z,5.90
2023-03-27T16:46:27.989Z,5.80
2023-03-27T16:49:14.946Z,5.90
2023-03-27T16:52:02.828Z,5.90
2023-03-27T16:54:49.386Z,6.00
2023-03-27T16:57:35.984Z,5.90
2023-03-27T17:00:23.515Z,5.80
2023-03-27T17:03:11.477Z,5.70
2023-03-27T17:06:01.380Z,5.60
2023-03-27T17:08:55.038Z,5.50
2023-03-27T17:11:42.286Z,5.40
2023-03-27T17:14:29.246Z,5.40
2023-03-27T17:17:16.000Z,5.30
2023-03-27T17:20:03.883Z,5.20
2023-03-27T17:22:51.793Z,5.10
2023-03-27T17:25:39.742Z,4.90
2023-03-27T17:28:26.176Z,4.80
2023-03-27T17:31:12.585Z,4.70
2023-03-27T17:33:59.365Z,4.60
2023-03-27T17:36:54.033Z,4.50
2023-03-27T17:39:41.150Z,4.30
2023-03-27T17:42:29.128Z,4.30
2023-03-27T17:45:15.633Z,4.30
2023-03-27T17:48:02.161Z,4.20
2023-03-27T17:51:01.096Z,4.20
2023-03-27T17:53:47.898Z,4.20
2023-03-27T17:56:34.325Z,4.10
2023-03-27T17:59:22.068Z,4.10
2023-03-27T18:02:09.054Z,4.10
2023-03-27T18:04:58.296Z,4.00
2023-03-27T18:07:44.687Z,4.00
2023-03-27T18:10:31.563Z,3.80
2023-03-27T18:13:19.993Z,3.80
2023-03-27T18:16:10.560Z,3.80
2023-03-27T18:18:57.796Z,3.80
2023-03-27T18:21:44.308Z,3.80
2023-03-27T18:24:31.164Z,3.80
2023-03-27T18:27:17.672Z,3.90
2023-03-27T18:30:04.210Z,3.80
2023-03-27T18:32:52.177Z,3.80
2023-03-27T18:35:39.078Z,3.80
2023-03-27T18:38:26.376Z,3.80
2023-03-27T18:41:12.805Z,3.80
2023-03-27T18:43:59.117Z,3.70
2023-03-27T18:46:45.515Z,3.70
2023-03-27T18:49:33.233Z,3.60
2023-03-27T18:52:19.637Z,3.60
2023-03-27T18:55:07.486Z,3.70
2023-03-27T18:57:54.122Z,3.70
2023-03-27T19:00:40.703Z,3.70
2023-03-27T19:03:30.360Z,3.70
2023-03-27T19:06:19.598Z,3.60
2023-03-27T19:09:06.543Z,3.60
2023-03-27T19:11:55.268Z,3.60
2023-03-27T19:14:42.224Z,3.60
2023-03-27T19:17:28.646Z,3.60
2023-03-27T19:20:15.262Z,3.60
2023-03-27T19:23:03.522Z,3.60
2023-03-27T19:25:50.719Z,3.70
2023-03-27T19:28:37.313Z,3.70
2023-03-27T19:31:24.087Z,3.60
2023-03-27T19:34:10.991Z,3.60
2023-03-27T19:36:59.388Z,3.50
2023-03-27T19:39:47.219Z,3.50
2023-03-27T19:42:34.014Z,3.50
2023-03-27T19:45:20.376Z,3.40
2023-03-27T19:48:07.006Z,3.40
2023-03-27T19:50:58.514Z,3.60
2023-03-27T19:53:45.101Z,3.60
2023-03-27T19:56:32.995Z,3.60
2023-03-27T19:59:29.826Z,3.60
2023-03-27T20:02:17.199Z,3.50
2023-03-27T20:05:03.703Z,3.50
2023-03-27T20:07:50.216Z,3.40
2023-03-27T20:10:36.534Z,3.40
2023-03-27T20:13:24.361Z,3.30
2023-03-27T20:16:14.350Z,3.40
2023-03-27T20:19:04.623Z,3.20
2023-03-27T20:21:52.820Z,3.20
2023-03-27T20:24:40.213Z,3.10
2023-03-27T20:27:28.968Z,3.10
2023-03-27T20:30:16.964Z,3.10
2023-03-27T20:33:04.011Z,3.10
2023-03-27T20:35:50.757Z,3.10
2023-03-27T20:38:37.268Z,3.00
2023-03-27T20:41:27.187Z,3.00
2023-03-27T20:44:16.085Z,3.00
2023-03-27T20:47:10.844Z,3.00
2023-03-27T20:49:58.904Z,3.20
2023-03-27T20:52:46.185Z,3.20
2023-03-27T20:55:39.294Z,3.10
2023-03-27T20:58:30.069Z,3.10
2023-03-27T21:01:20.322Z,3.20
2023-03-27T21:04:08.926Z,3.20
2023-03-27T21:06:57.021Z,3.10
2023-03-27T21:09:43.901Z,3.20
2023-03-27T21:12:30.704Z,3.10
2023-03-27T21:15:17.058Z,3.10
2023-03-27T21:18:03.635Z,3.10
2023-03-27T21:20:51.842Z,3.10
2023-03-27T21:23:39.241Z,3.10
2023-03-27T21:26:26.015Z,3.10
2023-03-27T21:29:12.629Z,3.00
2023-03-27T21:31:59.229Z,3.00
2023-03-27T21:34:45.849Z,3.00
2023-03-27T21:37:33.831Z,3.00
2023-03-27T21:40:20.705Z,3.00
2023-03-27T21:43:08.306Z,3.00
2023-03-27T21:45:55.037Z,2.90
2023-03-27T21:48:43.990Z,2.90
2023-03-27T21:51:30.322Z,2.90
2023-03-27T21:54:18.096Z,3.00
2023-03-27T21:57:04.945Z,3.00
2023-03-27T21:59:51.064Z,3.00
2023-03-27T22:02:37.403Z,3.10
2023-03-27T22:05:24.047Z,3.10
2023-03-27T22:08:10.580Z,3.30
2023-03-27T22:11:01.120Z,3.30
2023-03-27T22:13:48.985Z,3.30
2023-03-27T22:16:36.051Z,3.40
2023-03-27T22:19:22.718Z,3.40
2023-03-27T22:22:09.361Z,3.40
2023-03-27T22:24:55.862Z,3.50
2023-03-27T22:27:43.648Z,3.30
2023-03-27T22:30:30.708Z,3.30
2023-03-27T22:33:17.555Z,3.20
2023-03-27T22:36:04.121Z,3.20
2023-03-27T22:38:50.873Z,3.10
2023-03-27T22:41:37.261Z,3.10
2023-03-27T22:44:25.506Z,3.10
2023-03-27T22:47:12.267Z,2.90
2023-03-27T22:49:58.964Z,3.00
2023-03-27T22:52:45.762Z,2.90
2023-03-27T22:55:32.172Z,2.90
2023-03-27T22:58:18.997Z,2.90
2023-03-27T23:01:07.864Z,2.90
2023-03-27T23:03:54.443Z,2.90
2023-03-27T23:06:41.232Z,2.90
2023-03-27T23:09:27.726Z,2.90
2023-03-27T23:12:14.059Z,3.00
2023-03-27T23:15:00.618Z,3.00
2023-03-27T23:17:49.259Z,3.10
2023-03-27T23:20:36.994Z,3.10
2023-03-27T23:23:24.218Z,3.00
2023-03-27T23:26:12.721Z,3.00
2023-03-27T23:28:59.715Z,3.00
2023-03-27T23:31:46.370Z,3.00
2023-03-27T23:34:34.148Z,3.00
2023-03-27T23:37:21.025Z,3.10
2023-03-27T23:40:08.920Z,3.20
2023-03-27T23:42:55.705Z,3.30
2023-03-27T23:45:43.448Z,3.30
2023-03-27T23:48:31.004Z,3.40
2023-03-27T23:51:18.958Z,3.50
2023-03-27T23:54:06.047Z,3.50
2023-03-27T23:56:52.642Z,3.40
2023-03-27T23:59:39.030Z,3.40
